sensor_id;sensor_type;location;lat;lon;timestamp;P1;durP1;ratioP1;P2;durP2;ratioP2
42198;SDS011;27868;45.184;5.786;2023-01-29T00:02:12;26.42;;;13.32;;
42198;SDS011;27868;45.184;5.786;2023-01-29T00:04:56;27.15;;;14.25;;
42198;SDS011;27868;45.184;5.786;2023-01-29T00:07:43;27.52;;;13.88;;
42198;SDS011;27868;45.184;5.786;2023-01-29T00:10:28;24.60;;;12.20;;
42198;SDS011;27868;45.184;5.786;2023-01-29T00:13:13;24.88;;;12.93;;
42198;SDS011;27868;45.184;5.786;2023-01-29T00:15:57;24.45;;;12.57;;
42198;SDS011;27868;45.184;5.786;2023-01-29T00:18:43;23.00;;;12.35;;
42198;SDS011;27868;45.184;5.786;2023-01-29T00:21:28;24.88;;;12.75;;
42198;SDS011;27868;45.184;5.786;2023-01-29T00:24:14;24.98;;;12.98;;
42198;SDS011;27868;45.184;5.786;2023-01-29T00:26:58;30.33;;;13.93;;
42198;SDS011;27868;45.184;5.786;2023-01-29T00:29:43;27.13;;;14.13;;
42198;SDS011;27868;45.184;5.786;2023-01-29T00:32:45;28.25;;;13.30;;
42198;SDS011;27868;45.184;5.786;2023-01-29T00:35:30;26.45;;;14.18;;
42198;SDS011;27868;45.184;5.786;2023-01-29T00:38:15;26.33;;;13.48;;
42198;SDS011;27868;45.184;5.786;2023-01-29T00:41:07;29.70;;;14.27;;
42198;SDS011;27868;45.184;5.786;2023-01-29T00:44:11;27.80;;;14.35;;
42198;SDS011;27868;45.184;5.786;2023-01-29T00:47:15;24.40;;;12.80;;
42198;SDS011;27868;45.184;5.786;2023-01-29T00:50:20;27.92;;;14.50;;
42198;SDS011;27868;45.184;5.786;2023-01-29T00:53:04;29.60;;;14.55;;
42198;SDS011;27868;45.184;5.786;2023-01-29T00:55:49;31.50;;;15.10;;
42198;SDS011;27868;45.184;5.786;2023-01-29T00:58:34;28.33;;;14.80;;
42198;SDS011;27868;45.184;5.786;2023-01-29T01:01:18;28.90;;;15.50;;
42198;SDS011;27868;45.184;5.786;2023-01-29T01:04:23;29.65;;;14.05;;
42198;SDS011;27868;45.184;5.786;2023-01-29T01:07:07;27.92;;;14.23;;
42198;SDS011;27868;45.184;5.786;2023-01-29T01:09:52;30.48;;;14.98;;
42198;SDS011;27868;45.184;5.786;2023-01-29T01:12:56;31.33;;;15.18;;
42198;SDS011;27868;45.184;5.786;2023-01-29T01:15:46;28.88;;;14.40;;
42198;SDS011;27868;45.184;5.786;2023-01-29T01:18:30;27.73;;;15.10;;
42198;SDS011;27868;45.184;5.786;2023-01-29T01:21:15;27.35;;;14.55;;
42198;SDS011;27868;45.184;5.786;2023-01-29T01:23:59;29.73;;;15.55;;
42198;SDS011;27868;45.184;5.786;2023-01-29T01:26:43;29.00;;;14.05;;
42198;SDS011;27868;45.184;5.786;2023-01-29T01:29:29;30.13;;;15.48;;
42198;SDS011;27868;45.184;5.786;2023-01-29T01:32:13;30.35;;;15.38;;
42198;SDS011;27868;45.184;5.786;2023-01-29T01:34:59;30.55;;;15.25;;
42198;SDS011;27868;45.184;5.786;2023-01-29T01:37:43;29.10;;;14.98;;
42198;SDS011;27868;45.184;5.786;2023-01-29T01:40:28;30.45;;;14.90;;
42198;SDS011;27868;45.184;5.786;2023-01-29T01:43:13;31.27;;;14.93;;
42198;SDS011;27868;45.184;5.786;2023-01-29T01:45:58;31.88;;;16.23;;
42198;SDS011;27868;45.184;5.786;2023-01-29T01:48:42;38.00;;;16.80;;
42198;SDS011;27868;45.184;5.786;2023-01-29T01:51:31;32.50;;;16.00;;
42198;SDS011;27868;45.184;5.786;2023-01-29T01:54:27;34.92;;;16.02;;
42198;SDS011;27868;45.184;5.786;2023-01-29T01:57:16;33.50;;;16.63;;
42198;SDS011;27868;45.184;5.786;2023-01-29T02:00:08;33.85;;;17.00;;
42198;SDS011;27868;45.184;5.786;2023-01-29T02:02:56;36.60;;;16.88;;
42198;SDS011;27868;45.184;5.786;2023-01-29T02:06:01;38.53;;;17.30;;
42198;SDS011;27868;45.184;5.786;2023-01-29T02:09:07;36.45;;;16.65;;
42198;SDS011;27868;45.184;5.786;2023-01-29T02:12:20;38.88;;;17.55;;
42198;SDS011;27868;45.184;5.786;2023-01-29T02:15:05;44.78;;;19.55;;
42198;SDS011;27868;45.184;5.786;2023-01-29T02:17:50;39.00;;;18.52;;
42198;SDS011;27868;45.184;5.786;2023-01-29T02:20:35;40.95;;;18.45;;
42198;SDS011;27868;45.184;5.786;2023-01-29T02:23:31;40.83;;;19.45;;
42198;SDS011;27868;45.184;5.786;2023-01-29T02:29:11;43.13;;;18.58;;
42198;SDS011;27868;45.184;5.786;2023-01-29T02:35:41;36.63;;;17.55;;
42198;SDS011;27868;45.184;5.786;2023-01-29T02:41:29;38.17;;;17.73;;
42198;SDS011;27868;45.184;5.786;2023-01-29T02:47:16;37.13;;;17.52;;
42198;SDS011;27868;45.184;5.786;2023-01-29T02:55:58;32.45;;;16.13;;
42198;SDS011;27868;45.184;5.786;2023-01-29T02:58:56;36.40;;;16.45;;
42198;SDS011;27868;45.184;5.786;2023-01-29T03:01:47;38.10;;;17.90;;
42198;SDS011;27868;45.184;5.786;2023-01-29T03:04:40;36.03;;;17.83;;
42198;SDS011;27868;45.184;5.786;2023-01-29T03:07:34;35.55;;;17.35;;
42198;SDS011;27868;45.184;5.786;2023-01-29T03:10:29;38.13;;;17.10;;
42198;SDS011;27868;45.184;5.786;2023-01-29T03:13:40;35.78;;;17.05;;
42198;SDS011;27868;45.184;5.786;2023-01-29T03:16:37;38.63;;;18.52;;
42198;SDS011;27868;45.184;5.786;2023-01-29T03:19:36;36.55;;;17.73;;
42198;SDS011;27868;45.184;5.786;2023-01-29T03:22:24;39.47;;;17.75;;
42198;SDS011;27868;45.184;5.786;2023-01-29T03:25:10;36.35;;;17.15;;
42198;SDS011;27868;45.184;5.786;2023-01-29T03:28:17;37.67;;;18.08;;
42198;SDS011;27868;45.184;5.786;2023-01-29T03:31:23;37.08;;;18.15;;
42198;SDS011;27868;45.184;5.786;2023-01-29T03:34:28;37.45;;;18.65;;
42198;SDS011;27868;45.184;5.786;2023-01-29T03:37:27;35.90;;;17.10;;
42198;SDS011;27868;45.184;5.786;2023-01-29T03:40:18;38.42;;;17.23;;
42198;SDS011;27868;45.184;5.786;2023-01-29T03:49:47;35.00;;;17.10;;
42198;SDS011;27868;45.184;5.786;2023-01-29T03:58:58;37.22;;;17.15;;
42198;SDS011;27868;45.184;5.786;2023-01-29T04:02:08;33.88;;;16.20;;
42198;SDS011;27868;45.184;5.786;2023-01-29T04:05:04;34.80;;;16.20;;
42198;SDS011;27868;45.184;5.786;2023-01-29T04:07:55;35.03;;;16.10;;
42198;SDS011;27868;45.184;5.786;2023-01-29T04:10:45;34.72;;;15.48;;
42198;SDS011;27868;45.184;5.786;2023-01-29T04:13:32;32.50;;;14.52;;
42198;SDS011;27868;45.184;5.786;2023-01-29T04:16:19;29.63;;;13.63;;
42198;SDS011;27868;45.184;5.786;2023-01-29T04:19:10;28.95;;;13.88;;
42198;SDS011;27868;45.184;5.786;2023-01-29T04:22:01;25.95;;;12.93;;
42198;SDS011;27868;45.184;5.786;2023-01-29T04:24:50;34.00;;;13.80;;
42198;SDS011;27868;45.184;5.786;2023-01-29T04:30:52;28.95;;;13.10;;
42198;SDS011;27868;45.184;5.786;2023-01-29T04:37:14;26.48;;;12.43;;
42198;SDS011;27868;45.184;5.786;2023-01-29T04:40:14;28.13;;;13.85;;
42198;SDS011;27868;45.184;5.786;2023-01-29T04:43:20;29.83;;;13.13;;
42198;SDS011;27868;45.184;5.786;2023-01-29T04:49:23;25.02;;;12.35;;
42198;SDS011;27868;45.184;5.786;2023-01-29T04:56:05;28.00;;;12.73;;
42198;SDS011;27868;45.184;5.786;2023-01-29T05:01:47;27.67;;;13.02;;
42198;SDS011;27868;45.184;5.786;2023-01-29T05:04:32;24.98;;;12.30;;
42198;SDS011;27868;45.184;5.786;2023-01-29T05:07:18;27.58;;;11.85;;
42198;SDS011;27868;45.184;5.786;2023-01-29T05:10:04;24.98;;;11.48;;
42198;SDS011;27868;45.184;5.786;2023-01-29T05:12:53;26.58;;;11.80;;
42198;SDS011;27868;45.184;5.786;2023-01-29T05:15:45;29.27;;;12.85;;
42198;SDS011;27868;45.184;5.786;2023-01-29T05:21:18;27.40;;;12.80;;
42198;SDS011;27868;45.184;5.786;2023-01-29T05:24:13;27.45;;;12.93;;
42198;SDS011;27868;45.184;5.786;2023-01-29T05:27:03;26.30;;;12.05;;
42198;SDS011;27868;45.184;5.786;2023-01-29T05:30:06;27.23;;;13.43;;
42198;SDS011;27868;45.184;5.786;2023-01-29T05:32:51;25.77;;;11.88;;
42198;SDS011;27868;45.184;5.786;2023-01-29T05:35:36;26.50;;;13.02;;
42198;SDS011;27868;45.184;5.786;2023-01-29T05:38:21;28.33;;;13.05;;
42198;SDS011;27868;45.184;5.786;2023-01-29T05:41:06;26.13;;;11.93;;
42198;SDS011;27868;45.184;5.786;2023-01-29T05:43:51;27.90;;;12.77;;
42198;SDS011;27868;45.184;5.786;2023-01-29T05:46:36;26.80;;;12.80;;
42198;SDS011;27868;45.184;5.786;2023-01-29T05:49:21;27.55;;;12.32;;
42198;SDS011;27868;45.184;5.786;2023-01-29T05:52:05;28.25;;;12.88;;
42198;SDS011;27868;45.184;5.786;2023-01-29T05:54:50;24.00;;;11.80;;
42198;SDS011;27868;45.184;5.786;2023-01-29T05:57:34;25.75;;;12.07;;
42198;SDS011;27868;45.184;5.786;2023-01-29T06:00:19;28.27;;;12.27;;
42198;SDS011;27868;45.184;5.786;2023-01-29T06:03:04;24.80;;;12.15;;
42198;SDS011;27868;45.184;5.786;2023-01-29T06:05:48;26.77;;;11.65;;
42198;SDS011;27868;45.184;5.786;2023-01-29T06:08:33;25.67;;;12.80;;
42198;SDS011;27868;45.184;5.786;2023-01-29T06:11:17;29.23;;;12.48;;
42198;SDS011;27868;45.184;5.786;2023-01-29T06:14:03;29.10;;;12.15;;
42198;SDS011;27868;45.184;5.786;2023-01-29T06:16:48;27.85;;;12.38;;
42198;SDS011;27868;45.184;5.786;2023-01-29T06:19:32;24.23;;;11.75;;
42198;SDS011;27868;45.184;5.786;2023-01-29T06:22:17;29.85;;;11.90;;
42198;SDS011;27868;45.184;5.786;2023-01-29T06:25:01;26.33;;;12.80;;
42198;SDS011;27868;45.184;5.786;2023-01-29T06:27:49;28.30;;;12.75;;
42198;SDS011;27868;45.184;5.786;2023-01-29T06:30:34;26.50;;;12.32;;
42198;SDS011;27868;45.184;5.786;2023-01-29T06:33:18;25.90;;;12.65;;
42198;SDS011;27868;45.184;5.786;2023-01-29T06:36:03;29.95;;;12.52;;
42198;SDS011;27868;45.184;5.786;2023-01-29T06:38:48;25.85;;;12.32;;
42198;SDS011;27868;45.184;5.786;2023-01-29T06:41:33;28.67;;;12.82;;
42198;SDS011;27868;45.184;5.786;2023-01-29T06:44:18;26.25;;;12.25;;
42198;SDS011;27868;45.184;5.786;2023-01-29T06:47:03;25.92;;;12.63;;
42198;SDS011;27868;45.184;5.786;2023-01-29T06:49:48;27.13;;;12.10;;
42198;SDS011;27868;45.184;5.786;2023-01-29T06:52:32;26.48;;;11.77;;
42198;SDS011;27868;45.184;5.786;2023-01-29T06:55:17;27.23;;;12.48;;
42198;SDS011;27868;45.184;5.786;2023-01-29T06:58:06;22.77;;;12.15;;
42198;SDS011;27868;45.184;5.786;2023-01-29T07:01:01;23.73;;;11.20;;
42198;SDS011;27868;45.184;5.786;2023-01-29T07:03:50;24.92;;;11.50;;
42198;SDS011;27868;45.184;5.786;2023-01-29T07:06:35;23.63;;;11.50;;
42198;SDS011;27868;45.184;5.786;2023-01-29T07:09:20;23.63;;;11.88;;
42198;SDS011;27868;45.184;5.786;2023-01-29T07:12:05;24.20;;;11.85;;
42198;SDS011;27868;45.184;5.786;2023-01-29T07:14:50;27.88;;;11.63;;
42198;SDS011;27868;45.184;5.786;2023-01-29T07:17:34;23.02;;;10.95;;
42198;SDS011;27868;45.184;5.786;2023-01-29T07:20:19;24.35;;;11.23;;
42198;SDS011;27868;45.184;5.786;2023-01-29T07:23:04;22.85;;;10.95;;
42198;SDS011;27868;45.184;5.786;2023-01-29T07:25:49;23.60;;;10.85;;
42198;SDS011;27868;45.184;5.786;2023-01-29T07:28:37;28.25;;;11.52;;
42198;SDS011;27868;45.184;5.786;2023-01-29T07:31:23;23.30;;;11.40;;
42198;SDS011;27868;45.184;5.786;2023-01-29T07:34:07;24.35;;;10.60;;
42198;SDS011;27868;45.184;5.786;2023-01-29T07:36:52;22.70;;;10.32;;
42198;SDS011;27868;45.184;5.786;2023-01-29T07:39:37;27.33;;;11.20;;
42198;SDS011;27868;45.184;5.786;2023-01-29T07:42:22;22.05;;;11.27;;
42198;SDS011;27868;45.184;5.786;2023-01-29T07:45:06;22.27;;;10.73;;
42198;SDS011;27868;45.184;5.786;2023-01-29T07:47:52;29.13;;;11.52;;
42198;SDS011;27868;45.184;5.786;2023-01-29T07:50:39;24.08;;;10.88;;
42198;SDS011;27868;45.184;5.786;2023-01-29T07:53:24;22.92;;;10.65;;
42198;SDS011;27868;45.184;5.786;2023-01-29T07:56:10;20.98;;;10.05;;
42198;SDS011;27868;45.184;5.786;2023-01-29T07:58:55;22.25;;;10.45;;
42198;SDS011;27868;45.184;5.786;2023-01-29T08:01:40;21.30;;;10.75;;
42198;SDS011;27868;45.184;5.786;2023-01-29T08:04:26;20.20;;;9.93;;
42198;SDS011;27868;45.184;5.786;2023-01-29T08:07:10;23.02;;;10.02;;
42198;SDS011;27868;45.184;5.786;2023-01-29T08:09:55;21.60;;;10.55;;
42198;SDS011;27868;45.184;5.786;2023-01-29T08:12:39;26.52;;;11.45;;
42198;SDS011;27868;45.184;5.786;2023-01-29T08:15:24;25.08;;;11.00;;
42198;SDS011;27868;45.184;5.786;2023-01-29T08:18:10;26.77;;;11.98;;
42198;SDS011;27868;45.184;5.786;2023-01-29T08:20:59;23.40;;;11.23;;
42198;SDS011;27868;45.184;5.786;2023-01-29T08:23:44;20.48;;;10.63;;
42198;SDS011;27868;45.184;5.786;2023-01-29T08:26:29;27.75;;;10.43;;
42198;SDS011;27868;45.184;5.786;2023-01-29T08:29:13;24.50;;;9.98;;
42198;SDS011;27868;45.184;5.786;2023-01-29T08:31:58;19.45;;;9.60;;
42198;SDS011;27868;45.184;5.786;2023-01-29T08:34:43;22.10;;;10.50;;
42198;SDS011;27868;45.184;5.786;2023-01-29T08:37:28;21.75;;;10.23;;
42198;SDS011;27868;45.184;5.786;2023-01-29T08:40:13;22.02;;;10.13;;
42198;SDS011;27868;45.184;5.786;2023-01-29T08:43:09;24.40;;;10.75;;
42198;SDS011;27868;45.184;5.786;2023-01-29T08:45:54;20.17;;;9.82;;
42198;SDS011;27868;45.184;5.786;2023-01-29T08:48:39;22.33;;;10.13;;
42198;SDS011;27868;45.184;5.786;2023-01-29T08:51:23;21.20;;;9.68;;
42198;SDS011;27868;45.184;5.786;2023-01-29T08:54:09;23.48;;;9.65;;
42198;SDS011;27868;45.184;5.786;2023-01-29T08:56:54;26.23;;;10.45;;
42198;SDS011;27868;45.184;5.786;2023-01-29T08:59:39;23.85;;;10.57;;
42198;SDS011;27868;45.184;5.786;2023-01-29T09:02:24;23.42;;;10.05;;
42198;SDS011;27868;45.184;5.786;2023-01-29T09:05:09;22.73;;;10.52;;
42198;SDS011;27868;45.184;5.786;2023-01-29T09:07:57;21.73;;;9.52;;
42198;SDS011;27868;45.184;5.786;2023-01-29T09:10:42;25.63;;;10.38;;
42198;SDS011;27868;45.184;5.786;2023-01-29T09:13:27;22.33;;;10.05;;
42198;SDS011;27868;45.184;5.786;2023-01-29T09:16:12;21.60;;;10.10;;
42198;SDS011;27868;45.184;5.786;2023-01-29T09:18:57;23.10;;;11.15;;
42198;SDS011;27868;45.184;5.786;2023-01-29T09:21:42;21.65;;;10.10;;
42198;SDS011;27868;45.184;5.786;2023-01-29T09:24:26;22.83;;;10.52;;
42198;SDS011;27868;45.184;5.786;2023-01-29T09:27:11;22.60;;;10.77;;
42198;SDS011;27868;45.184;5.786;2023-01-29T09:29:56;27.60;;;11.32;;
42198;SDS011;27868;45.184;5.786;2023-01-29T09:32:41;24.80;;;11.45;;
42198;SDS011;27868;45.184;5.786;2023-01-29T09:35:25;22.95;;;10.60;;
42198;SDS011;27868;45.184;5.786;2023-01-29T09:38:10;23.65;;;9.43;;
42198;SDS011;27868;45.184;5.786;2023-01-29T09:43:53;19.27;;;9.60;;
42198;SDS011;27868;45.184;5.786;2023-01-29T09:46:45;21.52;;;9.70;;
42198;SDS011;27868;45.184;5.786;2023-01-29T09:49:35;20.05;;;10.05;;
42198;SDS011;27868;45.184;5.786;2023-01-29T09:52:29;19.73;;;8.95;;
42198;SDS011;27868;45.184;5.786;2023-01-29T10:07:14;23.05;;;10.43;;
42198;SDS011;27868;45.184;5.786;2023-01-29T10:10:18;22.25;;;9.68;;
42198;SDS011;27868;45.184;5.786;2023-01-29T10:25:18;23.23;;;11.07;;
42198;SDS011;27868;45.184;5.786;2023-01-29T10:28:04;24.48;;;11.35;;
42198;SDS011;27868;45.184;5.786;2023-01-29T10:31:26;26.90;;;13.30;;
42198;SDS011;27868;45.184;5.786;2023-01-29T10:34:18;27.15;;;12.73;;
42198;SDS011;27868;45.184;5.786;2023-01-29T10:37:55;26.42;;;12.13;;
42198;SDS011;27868;45.184;5.786;2023-01-29T10:40:36;25.27;;;12.57;;
42198;SDS011;27868;45.184;5.786;2023-01-29T10:43:38;24.10;;;11.45;;
42198;SDS011;27868;45.184;5.786;2023-01-29T10:55:38;24.30;;;11.55;;
42198;SDS011;27868;45.184;5.786;2023-01-29T11:01:42;20.15;;;9.85;;
42198;SDS011;27868;45.184;5.786;2023-01-29T11:04:27;23.52;;;11.80;;
42198;SDS011;27868;45.184;5.786;2023-01-29T11:07:14;51.42;;;19.45;;
42198;SDS011;27868;45.184;5.786;2023-01-29T11:10:03;44.88;;;17.23;;
42198;SDS011;27868;45.184;5.786;2023-01-29T11:12:57;35.78;;;16.17;;
42198;SDS011;27868;45.184;5.786;2023-01-29T11:15:43;30.88;;;13.63;;
42198;SDS011;27868;45.184;5.786;2023-01-29T11:18:28;25.10;;;12.30;;
42198;SDS011;27868;45.184;5.786;2023-01-29T11:21:33;29.70;;;13.40;;
42198;SDS011;27868;45.184;5.786;2023-01-29T11:24:39;28.83;;;13.98;;
42198;SDS011;27868;45.184;5.786;2023-01-29T11:27:25;25.25;;;12.40;;
42198;SDS011;27868;45.184;5.786;2023-01-29T11:30:34;28.05;;;12.35;;
42198;SDS011;27868;45.184;5.786;2023-01-29T11:33:22;22.38;;;10.50;;
42198;SDS011;27868;45.184;5.786;2023-01-29T11:36:21;24.40;;;11.20;;
42198;SDS011;27868;45.184;5.786;2023-01-29T11:39:17;23.50;;;11.90;;
42198;SDS011;27868;45.184;5.786;2023-01-29T11:42:08;25.38;;;11.18;;
42198;SDS011;27868;45.184;5.786;2023-01-29T11:45:17;24.42;;;10.90;;
42198;SDS011;27868;45.184;5.786;2023-01-29T11:48:18;23.45;;;11.15;;
42198;SDS011;27868;45.184;5.786;2023-01-29T11:51:05;24.48;;;11.52;;
42198;SDS011;27868;45.184;5.786;2023-01-29T11:53:57;21.30;;;10.75;;
42198;SDS011;27868;45.184;5.786;2023-01-29T11:56:45;20.20;;;10.02;;
42198;SDS011;27868;45.184;5.786;2023-01-29T11:59:41;21.65;;;11.43;;
42198;SDS011;27868;45.184;5.786;2023-01-29T12:02:33;23.38;;;11.23;;
42198;SDS011;27868;45.184;5.786;2023-01-29T12:05:22;23.65;;;11.30;;
42198;SDS011;27868;45.184;5.786;2023-01-29T12:08:15;23.77;;;11.52;;
42198;SDS011;27868;45.184;5.786;2023-01-29T12:11:22;21.85;;;10.65;;
42198;SDS011;27868;45.184;5.786;2023-01-29T12:14:29;23.83;;;11.73;;
42198;SDS011;27868;45.184;5.786;2023-01-29T12:17:20;21.77;;;10.20;;
42198;SDS011;27868;45.184;5.786;2023-01-29T12:20:13;21.45;;;10.80;;
42198;SDS011;27868;45.184;5.786;2023-01-29T12:26:09;20.77;;;10.43;;
42198;SDS011;27868;45.184;5.786;2023-01-29T12:35:18;22.93;;;10.90;;
42198;SDS011;27868;45.184;5.786;2023-01-29T12:53:06;24.02;;;12.43;;
42198;SDS011;27868;45.184;5.786;2023-01-29T12:56:15;22.10;;;11.13;;
42198;SDS011;27868;45.184;5.786;2023-01-29T13:02:31;26.73;;;12.73;;
42198;SDS011;27868;45.184;5.786;2023-01-29T13:05:24;23.65;;;12.48;;
42198;SDS011;27868;45.184;5.786;2023-01-29T13:08:16;21.92;;;11.00;;
42198;SDS011;27868;45.184;5.786;2023-01-29T13:11:09;22.75;;;12.20;;
42198;SDS011;27868;45.184;5.786;2023-01-29T13:14:00;21.23;;;10.68;;
42198;SDS011;27868;45.184;5.786;2023-01-29T13:17:09;22.98;;;11.35;;
42198;SDS011;27868;45.184;5.786;2023-01-29T13:23:16;22.27;;;11.27;;
42198;SDS011;27868;45.184;5.786;2023-01-29T13:26:16;21.95;;;10.80;;
42198;SDS011;27868;45.184;5.786;2023-01-29T13:29:02;23.58;;;11.90;;
42198;SDS011;27868;45.184;5.786;2023-01-29T13:31:49;21.90;;;11.82;;
42198;SDS011;27868;45.184;5.786;2023-01-29T13:34:36;19.92;;;10.70;;
42198;SDS011;27868;45.184;5.786;2023-01-29T13:40:22;19.05;;;9.60;;
42198;SDS011;27868;45.184;5.786;2023-01-29T13:43:11;19.95;;;10.57;;
42198;SDS011;27868;45.184;5.786;2023-01-29T13:46:13;22.08;;;11.82;;
42198;SDS011;27868;45.184;5.786;2023-01-29T13:49:04;21.77;;;10.40;;
42198;SDS011;27868;45.184;5.786;2023-01-29T13:55:28;23.58;;;11.18;;
42198;SDS011;27868;45.184;5.786;2023-01-29T13:58:17;22.10;;;11.63;;
42198;SDS011;27868;45.184;5.786;2023-01-29T14:04:30;22.67;;;12.05;;
42198;SDS011;27868;45.184;5.786;2023-01-29T14:10:36;23.27;;;11.38;;
42198;SDS011;27868;45.184;5.786;2023-01-29T14:18:56;21.23;;;11.10;;
42198;SDS011;27868;45.184;5.786;2023-01-29T14:21:47;24.25;;;10.95;;
42198;SDS011;27868;45.184;5.786;2023-01-29T14:24:33;23.15;;;12.20;;
42198;SDS011;27868;45.184;5.786;2023-01-29T14:27:21;20.02;;;10.75;;
42198;SDS011;27868;45.184;5.786;2023-01-29T14:30:08;20.73;;;10.90;;
42198;SDS011;27868;45.184;5.786;2023-01-29T14:33:00;20.40;;;10.70;;
42198;SDS011;27868;45.184;5.786;2023-01-29T14:35:48;17.58;;;9.38;;
42198;SDS011;27868;45.184;5.786;2023-01-29T14:38:35;19.33;;;10.20;;
42198;SDS011;27868;45.184;5.786;2023-01-29T14:53:19;22.48;;;10.95;;
42198;SDS011;27868;45.184;5.786;2023-01-29T14:56:40;20.80;;;10.40;;
42198;SDS011;27868;45.184;5.786;2023-01-29T14:59:54;24.58;;;13.88;;
42198;SDS011;27868;45.184;5.786;2023-01-29T15:02:43;22.27;;;11.25;;
42198;SDS011;27868;45.184;5.786;2023-01-29T15:05:30;22.48;;;10.95;;
42198;SDS011;27868;45.184;5.786;2023-01-29T15:08:24;22.08;;;11.60;;
42198;SDS011;27868;45.184;5.786;2023-01-29T15:11:26;22.38;;;11.88;;
42198;SDS011;27868;45.184;5.786;2023-01-29T15:19:56;23.60;;;10.90;;
42198;SDS011;27868;45.184;5.786;2023-01-29T15:22:41;21.77;;;11.23;;
42198;SDS011;27868;45.184;5.786;2023-01-29T15:25:36;22.95;;;11.10;;
42198;SDS011;27868;45.184;5.786;2023-01-29T15:28:33;23.52;;;10.95;;
42198;SDS011;27868;45.184;5.786;2023-01-29T15:31:18;20.05;;;10.77;;
42198;SDS011;27868;45.184;5.786;2023-01-29T15:34:04;23.05;;;11.55;;
42198;SDS011;27868;45.184;5.786;2023-01-29T15:36:50;25.00;;;10.43;;
42198;SDS011;27868;45.184;5.786;2023-01-29T15:39:41;21.90;;;10.77;;
42198;SDS011;27868;45.184;5.786;2023-01-29T15:42:28;24.35;;;13.23;;
42198;SDS011;27868;45.184;5.786;2023-01-29T15:45:26;27.88;;;14.23;;
42198;SDS011;27868;45.184;5.786;2023-01-29T15:48:15;26.33;;;13.45;;
42198;SDS011;27868;45.184;5.786;2023-01-29T15:51:06;24.13;;;12.30;;
42198;SDS011;27868;45.184;5.786;2023-01-29T15:53:55;24.67;;;12.23;;
42198;SDS011;27868;45.184;5.786;2023-01-29T15:56:51;29.05;;;13.38;;
42198;SDS011;27868;45.184;5.786;2023-01-29T15:59:38;22.58;;;11.65;;
42198;SDS011;27868;45.184;5.786;2023-01-29T16:05:25;23.35;;;12.30;;
42198;SDS011;27868;45.184;5.786;2023-01-29T16:08:12;25.13;;;11.95;;
42198;SDS011;27868;45.184;5.786;2023-01-29T16:11:00;21.38;;;11.43;;
42198;SDS011;27868;45.184;5.786;2023-01-29T16:13:47;22.65;;;11.25;;
42198;SDS011;27868;45.184;5.786;2023-01-29T16:16:33;22.60;;;11.38;;
42198;SDS011;27868;45.184;5.786;2023-01-29T16:19:25;22.08;;;11.57;;
42198;SDS011;27868;45.184;5.786;2023-01-29T16:22:13;27.98;;;12.10;;
42198;SDS011;27868;45.184;5.786;2023-01-29T16:25:06;26.15;;;13.25;;
42198;SDS011;27868;45.184;5.786;2023-01-29T16:27:57;22.27;;;11.45;;
42198;SDS011;27868;45.184;5.786;2023-01-29T16:30:53;23.73;;;12.45;;
42198;SDS011;27868;45.184;5.786;2023-01-29T16:33:41;23.45;;;11.68;;
42198;SDS011;27868;45.184;5.786;2023-01-29T16:36:26;22.42;;;11.18;;
42198;SDS011;27868;45.184;5.786;2023-01-29T16:39:15;26.60;;;13.68;;
42198;SDS011;27868;45.184;5.786;2023-01-29T16:45:00;27.65;;;13.75;;
42198;SDS011;27868;45.184;5.786;2023-01-29T16:47:58;35.90;;;16.80;;
42198;SDS011;27868;45.184;5.786;2023-01-29T16:50:44;31.55;;;14.82;;
42198;SDS011;27868;45.184;5.786;2023-01-29T16:53:29;25.27;;;13.63;;
42198;SDS011;27868;45.184;5.786;2023-01-29T16:56:14;26.73;;;13.45;;
42198;SDS011;27868;45.184;5.786;2023-01-29T16:59:04;27.50;;;13.18;;
42198;SDS011;27868;45.184;5.786;2023-01-29T17:01:50;28.40;;;13.48;;
42198;SDS011;27868;45.184;5.786;2023-01-29T17:04:34;27.75;;;13.27;;
42198;SDS011;27868;45.184;5.786;2023-01-29T17:07:19;23.85;;;11.70;;
42198;SDS011;27868;45.184;5.786;2023-01-29T17:10:05;23.85;;;12.25;;
42198;SDS011;27868;45.184;5.786;2023-01-29T17:13:06;27.52;;;13.00;;
42198;SDS011;27868;45.184;5.786;2023-01-29T17:15:53;28.02;;;13.38;;
42198;SDS011;27868;45.184;5.786;2023-01-29T17:18:46;28.27;;;13.25;;
42198;SDS011;27868;45.184;5.786;2023-01-29T17:21:31;28.33;;;13.38;;
42198;SDS011;27868;45.184;5.786;2023-01-29T17:24:15;28.38;;;13.57;;
42198;SDS011;27868;45.184;5.786;2023-01-29T17:27:00;28.38;;;13.32;;
42198;SDS011;27868;45.184;5.786;2023-01-29T17:29:45;28.92;;;13.48;;
42198;SDS011;27868;45.184;5.786;2023-01-29T17:32:30;28.83;;;13.20;;
42198;SDS011;27868;45.184;5.786;2023-01-29T17:35:15;26.48;;;12.50;;
42198;SDS011;27868;45.184;5.786;2023-01-29T17:38:00;24.42;;;12.32;;
42198;SDS011;27868;45.184;5.786;2023-01-29T17:40:45;29.27;;;14.50;;
42198;SDS011;27868;45.184;5.786;2023-01-29T17:43:34;34.85;;;14.25;;
42198;SDS011;27868;45.184;5.786;2023-01-29T17:46:18;28.13;;;13.00;;
42198;SDS011;27868;45.184;5.786;2023-01-29T17:49:04;26.65;;;12.85;;
42198;SDS011;27868;45.184;5.786;2023-01-29T17:52:05;24.85;;;12.98;;
42198;SDS011;27868;45.184;5.786;2023-01-29T17:54:49;27.17;;;12.85;;
42198;SDS011;27868;45.184;5.786;2023-01-29T17:57:34;34.90;;;18.25;;
42198;SDS011;27868;45.184;5.786;2023-01-29T18:00:20;27.92;;;13.95;;
42198;SDS011;27868;45.184;5.786;2023-01-29T18:03:06;33.10;;;14.10;;
42198;SDS011;27868;45.184;5.786;2023-01-29T18:05:51;31.90;;;13.65;;
42198;SDS011;27868;45.184;5.786;2023-01-29T18:08:36;29.92;;;13.18;;
42198;SDS011;27868;45.184;5.786;2023-01-29T18:11:22;73.15;;;28.25;;
42198;SDS011;27868;45.184;5.786;2023-01-29T18:14:08;42.90;;;17.67;;
42198;SDS011;27868;45.184;5.786;2023-01-29T18:16:55;24.02;;;11.57;;
42198;SDS011;27868;45.184;5.786;2023-01-29T18:19:40;110.82;;;36.55;;
42198;SDS011;27868;45.184;5.786;2023-01-29T18:22:24;37.58;;;16.90;;
42198;SDS011;27868;45.184;5.786;2023-01-29T18:25:09;57.63;;;22.73;;
42198;SDS011;27868;45.184;5.786;2023-01-29T18:27:54;95.68;;;32.40;;
42198;SDS011;27868;45.184;5.786;2023-01-29T18:30:38;35.63;;;17.35;;
42198;SDS011;27868;45.184;5.786;2023-01-29T18:33:25;29.30;;;14.68;;
42198;SDS011;27868;45.184;5.786;2023-01-29T18:36:09;27.00;;;13.43;;
42198;SDS011;27868;45.184;5.786;2023-01-29T18:38:55;33.15;;;14.70;;
42198;SDS011;27868;45.184;5.786;2023-01-29T18:41:40;25.98;;;12.90;;
42198;SDS011;27868;45.184;5.786;2023-01-29T18:44:25;28.40;;;13.65;;
42198;SDS011;27868;45.184;5.786;2023-01-29T18:47:12;30.38;;;14.82;;
42198;SDS011;27868;45.184;5.786;2023-01-29T18:49:57;30.70;;;14.35;;
42198;SDS011;27868;45.184;5.786;2023-01-29T18:52:42;29.08;;;14.02;;
42198;SDS011;27868;45.184;5.786;2023-01-29T18:55:27;34.90;;;14.13;;
42198;SDS011;27868;45.184;5.786;2023-01-29T18:58:12;28.58;;;13.68;;
42198;SDS011;27868;45.184;5.786;2023-01-29T19:00:56;29.83;;;13.70;;
42198;SDS011;27868;45.184;5.786;2023-01-29T19:03:41;28.63;;;13.95;;
42198;SDS011;27868;45.184;5.786;2023-01-29T19:06:26;28.30;;;13.95;;
42198;SDS011;27868;45.184;5.786;2023-01-29T19:09:11;30.00;;;14.15;;
42198;SDS011;27868;45.184;5.786;2023-01-29T19:11:55;30.63;;;14.43;;
42198;SDS011;27868;45.184;5.786;2023-01-29T19:14:40;30.42;;;14.55;;